sensor_id;sensor_type;location;lat;lon;timestamp;temperature;humidity
69208;SHT31;70114;47.690;8.898;2023-07-13T00:00:42;19.63;79.19
69208;SHT31;70114;47.690;8.898;2023-07-13T00:03:07;19.52;79.34
69208;SHT31;70114;47.690;8.898;2023-07-13T00:05:33;19.55;79.20
69208;SHT31;70114;47.690;8.898;2023-07-13T00:07:59;19.59;78.99
69208;SHT31;70114;47.690;8.898;2023-07-13T00:10:24;19.61;79.26
69208;SHT31;70114;47.690;8.898;2023-07-13T00:12:49;19.59;79.25
69208;SHT31;70114;47.690;8.898;2023-07-13T00:15:18;19.55;79.65
69208;SHT31;70114;47.690;8.898;2023-07-13T00:17:54;19.57;79.29
69208;SHT31;70114;47.690;8.898;2023-07-13T00:20:24;19.61;79.46
69208;SHT31;70114;47.690;8.898;2023-07-13T00:22:51;19.61;79.49
69208;SHT31;70114;47.690;8.898;2023-07-13T00:25:19;19.63;79.52
69208;SHT31;70114;47.690;8.898;2023-07-13T00:27:47;19.61;79.69
69208;SHT31;70114;47.690;8.898;2023-07-13T00:30:14;19.54;79.86
69208;SHT31;70114;47.690;8.898;2023-07-13T00:32:40;19.55;79.84
69208;SHT31;70114;47.690;8.898;2023-07-13T00:35:06;19.57;79.85
69208;SHT31;70114;47.690;8.898;2023-07-13T00:37:32;19.55;79.92
69208;SHT31;70114;47.690;8.898;2023-07-13T00:39:57;19.50;80.18
69208;SHT31;70114;47.690;8.898;2023-07-13T00:42:23;19.39;80.49
69208;SHT31;70114;47.690;8.898;2023-07-13T00:47:31;19.41;80.30
69208;SHT31;70114;47.690;8.898;2023-07-13T00:49:56;19.42;80.24
69208;SHT31;70114;47.690;8.898;2023-07-13T00:52:22;19.41;80.13
69208;SHT31;70114;47.690;8.898;2023-07-13T00:54:48;19.38;80.38
69208;SHT31;70114;47.690;8.898;2023-07-13T00:57:16;19.38;80.27
69208;SHT31;70114;47.690;8.898;2023-07-13T00:59:46;19.39;80.24
69208;SHT31;70114;47.690;8.898;2023-07-13T01:02:12;19.45;80.12
69208;SHT31;70114;47.690;8.898;2023-07-13T01:04:38;19.42;80.46
69208;SHT31;70114;47.690;8.898;2023-07-13T01:07:04;19.45;80.53
69208;SHT31;70114;47.690;8.898;2023-07-13T01:09:31;19.50;80.19
69208;SHT31;70114;47.690;8.898;2023-07-13T01:11:56;19.48;80.19
69208;SHT31;70114;47.690;8.898;2023-07-13T01:14:22;19.51;80.25
69208;SHT31;70114;47.690;8.898;2023-07-13T01:16:47;19.50;79.78
69208;SHT31;70114;47.690;8.898;2023-07-13T01:19:35;19.39;80.18
69208;SHT31;70114;47.690;8.898;2023-07-13T01:22:02;19.47;80.00
69208;SHT31;70114;47.690;8.898;2023-07-13T01:24:28;19.47;79.88
69208;SHT31;70114;47.690;8.898;2023-07-13T01:26:54;19.51;79.69
69208;SHT31;70114;47.690;8.898;2023-07-13T01:29:20;19.55;79.79
69208;SHT31;70114;47.690;8.898;2023-07-13T01:31:45;19.58;79.36
69208;SHT31;70114;47.690;8.898;2023-07-13T01:34:11;19.61;79.31
69208;SHT31;70114;47.690;8.898;2023-07-13T01:36:36;19.62;79.25
69208;SHT31;70114;47.690;8.898;2023-07-13T01:39:03;19.65;79.22
69208;SHT31;70114;47.690;8.898;2023-07-13T01:41:28;19.63;79.72
69208;SHT31;70114;47.690;8.898;2023-07-13T01:43:54;19.61;80.32
69208;SHT31;70114;47.690;8.898;2023-07-13T01:46:19;19.66;79.99
69208;SHT31;70114;47.690;8.898;2023-07-13T01:48:45;19.68;79.55
69208;SHT31;70114;47.690;8.898;2023-07-13T01:51:10;19.59;79.80
69208;SHT31;70114;47.690;8.898;2023-07-13T01:53:36;19.65;79.55
69208;SHT31;70114;47.690;8.898;2023-07-13T01:56:01;19.62;79.61
69208;SHT31;70114;47.690;8.898;2023-07-13T01:58:27;19.51;79.68
69208;SHT31;70114;47.690;8.898;2023-07-13T02:00:52;19.52;79.79
69208;SHT31;70114;47.690;8.898;2023-07-13T02:03:18;19.50;79.89
69208;SHT31;70114;47.690;8.898;2023-07-13T02:05:45;19.51;79.76
69208;SHT31;70114;47.690;8.898;2023-07-13T02:08:10;19.27;81.06
69208;SHT31;70114;47.690;8.898;2023-07-13T02:10:37;19.39;80.45
69208;SHT31;70114;47.690;8.898;2023-07-13T02:13:05;19.45;80.08
69208;SHT31;70114;47.690;8.898;2023-07-13T02:15:31;19.45;80.39
69208;SHT31;70114;47.690;8.898;2023-07-13T02:17:56;19.38;80.38
69208;SHT31;70114;47.690;8.898;2023-07-13T02:20:24;19.41;80.26
69208;SHT31;70114;47.690;8.898;2023-07-13T02:22:49;19.42;80.25
69208;SHT31;70114;47.690;8.898;2023-07-13T02:25:15;19.45;79.78
69208;SHT31;70114;47.690;8.898;2023-07-13T02:27:41;19.47;80.04
69208;SHT31;70114;47.690;8.898;2023-07-13T02:30:06;19.45;80.13
69208;SHT31;70114;47.690;8.898;2023-07-13T02:32:32;19.41;80.67
69208;SHT31;70114;47.690;8.898;2023-07-13T02:34:59;19.44;81.01
69208;SHT31;70114;47.690;8.898;2023-07-13T02:37:24;19.39;81.08
69208;SHT31;70114;47.690;8.898;2023-07-13T02:39:50;19.42;81.47
69208;SHT31;70114;47.690;8.898;2023-07-13T02:42:15;19.31;81.78
69208;SHT31;70114;47.690;8.898;2023-07-13T02:44:40;19.42;81.28
69208;SHT31;70114;47.690;8.898;2023-07-13T02:47:06;19.47;81.16
69208;SHT31;70114;47.690;8.898;2023-07-13T02:49:31;19.45;81.44
69208;SHT31;70114;47.690;8.898;2023-07-13T02:51:57;19.47;81.44
69208;SHT31;70114;47.690;8.898;2023-07-13T02:54:22;19.34;81.87
69208;SHT31;70114;47.690;8.898;2023-07-13T02:56:48;19.45;81.73
69208;SHT31;70114;47.690;8.898;2023-07-13T02:59:13;19.51;81.50
69208;SHT31;70114;47.690;8.898;2023-07-13T03:01:39;19.55;81.47
69208;SHT31;70114;47.690;8.898;2023-07-13T03:04:05;19.58;81.34
69208;SHT31;70114;47.690;8.898;2023-07-13T03:06:32;19.58;81.43
69208;SHT31;70114;47.690;8.898;2023-07-13T03:08:58;19.48;81.75
69208;SHT31;70114;47.690;8.898;2023-07-13T03:11:23;19.55;81.35
69208;SHT31;70114;47.690;8.898;2023-07-13T03:13:49;19.54;81.44
69208;SHT31;70114;47.690;8.898;2023-07-13T03:16:15;19.54;81.17
69208;SHT31;70114;47.690;8.898;2023-07-13T03:18:41;19.57;81.22
69208;SHT31;70114;47.690;8.898;2023-07-13T03:21:07;19.55;81.28
69208;SHT31;70114;47.690;8.898;2023-07-13T03:23:32;19.55;81.15
69208;SHT31;70114;47.690;8.898;2023-07-13T03:26:19;19.59;81.09
69208;SHT31;70114;47.690;8.898;2023-07-13T03:28:45;19.59;81.02
69208;SHT31;70114;47.690;8.898;2023-07-13T03:31:16;19.61;81.04
69208;SHT31;70114;47.690;8.898;2023-07-13T03:33:42;19.61;80.94
69208;SHT31;70114;47.690;8.898;2023-07-13T03:36:12;19.62;80.81
69208;SHT31;70114;47.690;8.898;2023-07-13T03:38:38;19.61;80.62
69208;SHT31;70114;47.690;8.898;2023-07-13T03:41:03;19.63;80.47
69208;SHT31;70114;47.690;8.898;2023-07-13T03:43:29;19.55;80.88
69208;SHT31;70114;47.690;8.898;2023-07-13T03:45:54;19.63;80.54
69208;SHT31;70114;47.690;8.898;2023-07-13T03:48:20;19.66;80.54
69208;SHT31;70114;47.690;8.898;2023-07-13T03:50:47;19.66;80.39
69208;SHT31;70114;47.690;8.898;2023-07-13T03:53:12;19.66;80.58
69208;SHT31;70114;47.690;8.898;2023-07-13T03:55:37;19.68;80.75
69208;SHT31;70114;47.690;8.898;2023-07-13T03:58:30;19.66;80.53
69208;SHT31;70114;47.690;8.898;2023-07-13T04:00:56;19.66;80.45
69208;SHT31;70114;47.690;8.898;2023-07-13T04:03:22;19.70;80.27
69208;SHT31;70114;47.690;8.898;2023-07-13T04:05:48;19.72;80.28
69208;SHT31;70114;47.690;8.898;2023-07-13T04:08:13;19.73;80.23
69208;SHT31;70114;47.690;8.898;2023-07-13T04:10:39;19.73;80.30
69208;SHT31;70114;47.690;8.898;2023-07-13T04:13:04;19.76;80.22
69208;SHT31;70114;47.690;8.898;2023-07-13T04:15:31;19.78;80.31
69208;SHT31;70114;47.690;8.898;2023-07-13T04:17:57;19.78;80.39
69208;SHT31;70114;47.690;8.898;2023-07-13T04:20:24;19.80;80.51
69208;SHT31;70114;47.690;8.898;2023-07-13T04:22:50;19.83;80.90
69208;SHT31;70114;47.690;8.898;2023-07-13T04:25:16;19.83;80.72
69208;SHT31;70114;47.690;8.898;2023-07-13T04:27:41;19.86;80.68
69208;SHT31;70114;47.690;8.898;2023-07-13T04:30:07;19.87;80.47
69208;SHT31;70114;47.690;8.898;2023-07-13T04:32:33;19.72;80.85
69208;SHT31;70114;47.690;8.898;2023-07-13T04:34:58;19.76;80.24
69208;SHT31;70114;47.690;8.898;2023-07-13T04:37:25;19.80;80.14
69208;SHT31;70114;47.690;8.898;2023-07-13T04:39:50;19.85;80.14
69208;SHT31;70114;47.690;8.898;2023-07-13T04:42:16;19.89;79.88
69208;SHT31;70114;47.690;8.898;2023-07-13T04:44:41;19.86;79.97
69208;SHT31;70114;47.690;8.898;2023-07-13T04:47:07;19.90;79.96
69208;SHT31;70114;47.690;8.898;2023-07-13T04:49:32;19.93;79.71
69208;SHT31;70114;47.690;8.898;2023-07-13T04:51:58;19.94;79.69
69208;SHT31;70114;47.690;8.898;2023-07-13T04:54:23;19.93;79.80
69208;SHT31;70114;47.690;8.898;2023-07-13T04:56:49;19.97;79.37
69208;SHT31;70114;47.690;8.898;2023-07-13T04:59:14;20.01;79.38
69208;SHT31;70114;47.690;8.898;2023-07-13T05:01:39;20.00;79.45
69208;SHT31;70114;47.690;8.898;2023-07-13T05:04:06;19.85;79.79
69208;SHT31;70114;47.690;8.898;2023-07-13T05:06:31;19.96;79.28
69208;SHT31;70114;47.690;8.898;2023-07-13T05:08:57;19.94;79.52
69208;SHT31;70114;47.690;8.898;2023-07-13T05:11:22;19.96;80.15
69208;SHT31;70114;47.690;8.898;2023-07-13T05:13:47;19.85;80.65
69208;SHT31;70114;47.690;8.898;2023-07-13T05:16:13;19.90;80.11
69208;SHT31;70114;47.690;8.898;2023-07-13T05:18:38;19.83;81.21
69208;SHT31;70114;47.690;8.898;2023-07-13T05:21:09;19.94;80.55
69208;SHT31;70114;47.690;8.898;2023-07-13T05:23:35;19.93;79.86
69208;SHT31;70114;47.690;8.898;2023-07-13T05:26:02;19.87;79.72
69208;SHT31;70114;47.690;8.898;2023-07-13T05:28:30;19.92;79.96
69208;SHT31;70114;47.690;8.898;2023-07-13T05:30:56;19.89;80.35
69208;SHT31;70114;47.690;8.898;2023-07-13T05:33:21;19.62;79.62
69208;SHT31;70114;47.690;8.898;2023-07-13T05:35:47;19.79;80.01
69208;SHT31;70114;47.690;8.898;2023-07-13T05:38:12;19.79;80.35
69208;SHT31;70114;47.690;8.898;2023-07-13T05:40:38;19.66;80.86
69208;SHT31;70114;47.690;8.898;2023-07-13T05:43:03;19.78;80.38
69208;SHT31;70114;47.690;8.898;2023-07-13T05:45:30;19.82;80.67
69208;SHT31;70114;47.690;8.898;2023-07-13T05:47:55;19.85;80.36
69208;SHT31;70114;47.690;8.898;2023-07-13T05:50:21;19.87;80.36
69208;SHT31;70114;47.690;8.898;2023-07-13T05:52:47;19.96;79.68
69208;SHT31;70114;47.690;8.898;2023-07-13T05:55:12;19.99;79.67
69208;SHT31;70114;47.690;8.898;2023-07-13T05:57:38;20.00;79.38
69208;SHT31;70114;47.690;8.898;2023-07-13T06:00:04;20.01;79.43
69208;SHT31;70114;47.690;8.898;2023-07-13T06:02:29;20.06;79.37
69208;SHT31;70114;47.690;8.898;2023-07-13T06:04:55;20.06;79.50
69208;SHT31;70114;47.690;8.898;2023-07-13T06:07:20;19.96;79.25
69208;SHT31;70114;47.690;8.898;2023-07-13T06:09:46;19.99;79.27
69208;SHT31;70114;47.690;8.898;2023-07-13T06:12:11;20.05;79.39
69208;SHT31;70114;47.690;8.898;2023-07-13T06:14:37;19.99;79.80
69208;SHT31;70114;47.690;8.898;2023-07-13T06:17:02;19.83;79.78
69208;SHT31;70114;47.690;8.898;2023-07-13T06:19:28;19.86;80.13
69208;SHT31;70114;47.690;8.898;2023-07-13T06:21:54;19.87;80.42
69208;SHT31;70114;47.690;8.898;2023-07-13T06:24:19;19.92;80.31
69208;SHT31;70114;47.690;8.898;2023-07-13T06:26:45;19.83;80.03
69208;SHT31;70114;47.690;8.898;2023-07-13T06:29:10;19.68;80.66
69208;SHT31;70114;47.690;8.898;2023-07-13T06:31:36;19.59;81.86
69208;SHT31;70114;47.690;8.898;2023-07-13T06:34:01;19.76;80.92
69208;SHT31;70114;47.690;8.898;2023-07-13T06:36:26;19.82;80.60
69208;SHT31;70114;47.690;8.898;2023-07-13T06:38:52;19.89;80.98
69208;SHT31;70114;47.690;8.898;2023-07-13T06:41:17;20.00;80.78
69208;SHT31;70114;47.690;8.898;2023-07-13T06:43:42;20.06;80.45
69208;SHT31;70114;47.690;8.898;2023-07-13T06:46:08;19.97;80.28
69208;SHT31;70114;47.690;8.898;2023-07-13T06:48:33;19.97;78.35
69208;SHT31;70114;47.690;8.898;2023-07-13T06:50:59;20.05;78.86
69208;SHT31;70114;47.690;8.898;2023-07-13T06:53:24;19.97;80.62
69208;SHT31;70114;47.690;8.898;2023-07-13T06:55:50;19.96;81.42
69208;SHT31;70114;47.690;8.898;2023-07-13T06:58:17;20.03;81.03
69208;SHT31;70114;47.690;8.898;2023-07-13T07:00:43;20.00;81.03
69208;SHT31;70114;47.690;8.898;2023-07-13T07:03:09;20.05;79.95
69208;SHT31;70114;47.690;8.898;2023-07-13T07:05:34;20.00;79.24
69208;SHT31;70114;47.690;8.898;2023-07-13T07:08:00;19.94;79.54
69208;SHT31;70114;47.690;8.898;2023-07-13T07:10:26;20.00;79.98
69208;SHT31;70114;47.690;8.898;2023-07-13T07:12:52;20.01;78.18
69208;SHT31;70114;47.690;8.898;2023-07-13T07:15:18;19.97;77.93
69208;SHT31;70114;47.690;8.898;2023-07-13T07:17:43;19.87;80.24
69208;SHT31;70114;47.690;8.898;2023-07-13T07:20:09;19.80;80.67
69208;SHT31;70114;47.690;8.898;2023-07-13T07:22:35;19.78;80.46
69208;SHT31;70114;47.690;8.898;2023-07-13T07:25:00;19.68;81.53
69208;SHT31;70114;47.690;8.898;2023-07-13T07:27:26;19.66;81.46
69208;SHT31;70114;47.690;8.898;2023-07-13T07:29:52;19.59;81.18
69208;SHT31;70114;47.690;8.898;2023-07-13T07:32:18;19.48;82.44
69208;SHT31;70114;47.690;8.898;2023-07-13T07:34:44;19.44;82.84
69208;SHT31;70114;47.690;8.898;2023-07-13T07:37:11;19.47;82.54
69208;SHT31;70114;47.690;8.898;2023-07-13T07:39:36;19.51;81.93
69208;SHT31;70114;47.690;8.898;2023-07-13T07:42:02;19.45;82.29
69208;SHT31;70114;47.690;8.898;2023-07-13T07:44:28;19.54;81.47
69208;SHT31;70114;47.690;8.898;2023-07-13T07:46:53;19.57;79.03
69208;SHT31;70114;47.690;8.898;2023-07-13T07:49:20;19.59;78.94
69208;SHT31;70114;47.690;8.898;2023-07-13T07:51:45;19.31;75.93
69208;SHT31;70114;47.690;8.898;2023-07-13T07:54:11;19.14;78.13
69208;SHT31;70114;47.690;8.898;2023-07-13T07:56:37;19.47;77.16
69208;SHT31;70114;47.690;8.898;2023-07-13T07:59:02;19.58;78.23
69208;SHT31;70114;47.690;8.898;2023-07-13T08:01:28;19.54;78.82
69208;SHT31;70114;47.690;8.898;2023-07-13T08:03:53;19.58;76.77
69208;SHT31;70114;47.690;8.898;2023-07-13T08:06:18;19.70;77.74
69208;SHT31;70114;47.690;8.898;2023-07-13T08:08:45;19.85;77.46
69208;SHT31;70114;47.690;8.898;2023-07-13T08:11:10;19.99;76.45
69208;SHT31;70114;47.690;8.898;2023-07-13T08:13:37;20.01;72.68
69208;SHT31;70114;47.690;8.898;2023-07-13T08:16:04;20.01;72.05
69208;SHT31;70114;47.690;8.898;2023-07-13T08:18:30;20.10;73.21
69208;SHT31;70114;47.690;8.898;2023-07-13T08:20:55;20.14;74.57
69208;SHT31;70114;47.690;8.898;2023-07-13T08:23:24;20.14;74.46
69208;SHT31;70114;47.690;8.898;2023-07-13T08:25:54;20.21;74.07
69208;SHT31;70114;47.690;8.898;2023-07-13T08:28:23;20.30;74.71
69208;SHT31;70114;47.690;8.898;2023-07-13T08:30:48;20.07;74.44
69208;SHT31;70114;47.690;8.898;2023-07-13T08:33:18;20.30;75.69
69208;SHT31;70114;47.690;8.898;2023-07-13T08:35:48;20.34;73.90
69208;SHT31;70114;47.690;8.898;2023-07-13T08:38:14;20.41;73.77
69208;SHT31;70114;47.690;8.898;2023-07-13T08:40:40;20.17;73.41
69208;SHT31;70114;47.690;8.898;2023-07-13T08:43:10;20.36;73.43
69208;SHT31;70114;47.690;8.898;2023-07-13T08:48:22;20.63;75.95
69208;SHT31;70114;47.690;8.898;2023-07-13T08:53:22;20.63;75.60
69208;SHT31;70114;47.690;8.898;2023-07-13T08:55:52;20.76;74.26
69208;SHT31;70114;47.690;8.898;2023-07-13T08:58:22;20.69;72.82
69208;SHT31;70114;47.690;8.898;2023-07-13T09:01:23;20.71;72.80
69208;SHT31;70114;47.690;8.898;2023-07-13T09:04:17;20.84;70.66
69208;SHT31;70114;47.690;8.898;2023-07-13T09:12:19;20.59;69.19
69208;SHT31;70114;47.690;8.898;2023-07-13T09:14:55;20.69;71.17
69208;SHT31;70114;47.690;8.898;2023-07-13T09:17:29;20.57;71.09
69208;SHT31;70114;47.690;8.898;2023-07-13T09:20:06;20.58;71.68
69208;SHT31;70114;47.690;8.898;2023-07-13T09:22:37;20.78;72.44
69208;SHT31;70114;47.690;8.898;2023-07-13T09:25:21;20.89;72.76
69208;SHT31;70114;47.690;8.898;2023-07-13T09:27:50;21.02;72.81
69208;SHT31;70114;47.690;8.898;2023-07-13T09:30:25;21.19;73.06
69208;SHT31;70114;47.690;8.898;2023-07-13T09:32:53;21.31;73.34
69208;SHT31;70114;47.690;8.898;2023-07-13T09:35:23;21.47;73.02
69208;SHT31;70114;47.690;8.898;2023-07-13T09:37:50;21.68;73.26
69208;SHT31;70114;47.690;8.898;2023-07-13T09:40:28;21.79;72.99
69208;SHT31;70114;47.690;8.898;2023-07-13T09:42:56;21.99;72.51
69208;SHT31;70114;47.690;8.898;2023-07-13T09:45:31;22.09;69.62
69208;SHT31;70114;47.690;8.898;2023-07-13T09:48:04;21.85;69.99
69208;SHT31;70114;47.690;8.898;2023-07-13T09:50:30;22.16;68.92
69208;SHT31;70114;47.690;8.898;2023-07-13T09:52:55;22.05;68.79
69208;SHT31;70114;47.690;8.898;2023-07-13T09:57:52;21.99;70.30
69208;SHT31;70114;47.690;8.898;2023-07-13T10:00:29;21.71;68.25
69208;SHT31;70114;47.690;8.898;2023-07-13T10:03:22;21.70;68.37
69208;SHT31;70114;47.690;8.898;2023-07-13T10:05:50;21.70;68.58
69208;SHT31;70114;47.690;8.898;2023-07-13T10:08:28;21.68;69.22
69208;SHT31;70114;47.690;8.898;2023-07-13T10:13:59;21.87;70.48
69208;SHT31;70114;47.690;8.898;2023-07-13T10:16:30;22.06;71.89
69208;SHT31;70114;47.690;8.898;2023-07-13T10:19:19;22.40;70.10
69208;SHT31;70114;47.690;8.898;2023-07-13T10:21:58;22.57;67.73
69208;SHT31;70114;47.690;8.898;2023-07-13T10:24:31;21.84;67.28
69208;SHT31;70114;47.690;8.898;2023-07-13T10:27:01;22.32;67.59
69208;SHT31;70114;47.690;8.898;2023-07-13T10:29:32;22.47;66.31
69208;SHT31;70114;47.690;8.898;2023-07-13T10:32:00;22.45;64.63
69208;SHT31;70114;47.690;8.898;2023-07-13T10:34:26;22.20;66.56
69208;SHT31;70114;47.690;8.898;2023-07-13T10:36:52;22.67;69.18
69208;SHT31;70114;47.690;8.898;2023-07-13T10:39:21;22.84;70.41
69208;SHT31;70114;47.690;8.898;2023-07-13T10:41:52;22.75;70.22
69208;SHT31;70114;47.690;8.898;2023-07-13T10:44:24;22.73;68.01
69208;SHT31;70114;47.690;8.898;2023-07-13T10:46:57;22.78;68.28
69208;SHT31;70114;47.690;8.898;2023-07-13T10:49:24;23.10;66.64
69208;SHT31;70114;47.690;8.898;2023-07-13T10:51:51;22.80;66.16
69208;SHT31;70114;47.690;8.898;2023-07-13T10:54:21;23.21;65.17
69208;SHT31;70114;47.690;8.898;2023-07-13T10:56:50;23.04;66.37
69208;SHT31;70114;47.690;8.898;2023-07-13T10:59:27;23.02;66.60
69208;SHT31;70114;47.690;8.898;2023-07-13T11:01:57;23.14;64.62
69208;SHT31;70114;47.690;8.898;2023-07-13T11:04:25;23.10;65.77
69208;SHT31;70114;47.690;8.898;2023-07-13T11:06:56;22.93;65.70
69208;SHT31;70114;47.690;8.898;2023-07-13T11:09:40;22.83;65.62
69208;SHT31;70114;47.690;8.898;2023-07-13T11:19:53;23.38;65.92
69208;SHT31;70114;47.690;8.898;2023-07-13T11:22:25;23.39;64.58
69208;SHT31;70114;47.690;8.898;2023-07-13T11:24:59;23.25;64.15
69208;SHT31;70114;47.690;8.898;2023-07-13T11:27:36;23.66;63.55
69208;SHT31;70114;47.690;8.898;2023-07-13T11:30:25;23.98;62.55
69208;SHT31;70114;47.690;8.898;2023-07-13T11:35:50;24.27;62.01
69208;SHT31;70114;47.690;8.898;2023-07-13T11:38:23;24.39;62.18
69208;SHT31;70114;47.690;8.898;2023-07-13T11:40:51;24.04;61.73
69208;SHT31;70114;47.690;8.898;2023-07-13T11:43:18;24.06;64.87
69208;SHT31;70114;47.690;8.898;2023-07-13T11:45:44;24.42;61.64
69208;SHT31;70114;47.690;8.898;2023-07-13T11:48:42;24.42;61.40
69208;SHT31;70114;47.690;8.898;2023-07-13T11:51:19;24.99;60.93
69208;SHT31;70114;47.690;8.898;2023-07-13T11:53:47;24.90;61.10
69208;SHT31;70114;47.690;8.898;2023-07-13T11:56:13;25.09;59.51
69208;SHT31;70114;47.690;8.898;2023-07-13T11:58:39;25.14;59.79
69208;SHT31;70114;47.690;8.898;2023-07-13T12:01:05;25.35;58.99
69208;SHT31;70114;47.690;8.898;2023-07-13T12:03:33;24.94;61.36
69208;SHT31;70114;47.690;8.898;2023-07-13T12:06:06;25.34;57.78
69208;SHT31;70114;47.690;8.898;2023-07-13T12:08:45;25.61;59.70
69208;SHT31;70114;47.690;8.898;2023-07-13T12:11:17;25.51;57.07
69208;SHT31;70114;47.690;8.898;2023-07-13T12:13:44;25.45;57.03
69208;SHT31;70114;47.690;8.898;2023-07-13T12:16:31;25.76;57.57
69208;SHT31;70114;47.690;8.898;2023-07-13T12:18:59;26.12;57.75
69208;SHT31;70114;47.690;8.898;2023-07-13T12:21:33;26.05;56.93
69208;SHT31;70114;47.690;8.898;2023-07-13T12:23:59;26.15;57.15
69208;SHT31;70114;47.690;8.898;2023-07-13T12:26:28;25.93;54.58
69208;SHT31;70114;47.690;8.898;2023-07-13T12:28:54;25.67;55.95
69208;SHT31;70114;47.690;8.898;2023-07-13T12:36:38;26.06;55.11
69208;SHT31;70114;47.690;8.898;2023-07-13T12:39:13;26.13;53.47
69208;SHT31;70114;47.690;8.898;2023-07-13T12:41:39;25.97;55.08
69208;SHT31;70114;47.690;8.898;2023-07-13T12:44:09;26.03;54.55
69208;SHT31;70114;47.690;8.898;2023-07-13T12:46:36;26.03;56.25
69208;SHT31;70114;47.690;8.898;2023-07-13T12:49:06;26.29;53.79
69208;SHT31;70114;47.690;8.898;2023-07-13T12:51:32;26.19;54.85
69208;SHT31;70114;47.690;8.898;2023-07-13T12:54:08;26.43;53.44
69208;SHT31;70114;47.690;8.898;2023-07-13T12:56:36;26.60;52.20
69208;SHT31;70114;47.690;8.898;2023-07-13T12:59:04;26.44;53.40
69208;SHT31;70114;47.690;8.898;2023-07-13T13:01:34;26.41;53.70
69208;SHT31;70114;47.690;8.898;2023-07-13T13:04:02;26.40;53.98
69208;SHT31;70114;47.690;8.898;2023-07-13T13:06:32;26.23;54.40
69208;SHT31;70114;47.690;8.898;2023-07-13T13:08:59;26.22;53.91
69208;SHT31;70114;47.690;8.898;2023-07-13T13:11:26;26.29;53.46
69208;SHT31;70114;47.690;8.898;2023-07-13T13:13:51;26.36;54.77
69208;SHT31;70114;47.690;8.898;2023-07-13T13:17:02;26.64;52.81
69208;SHT31;70114;47.690;8.898;2023-07-13T13:19:17;26.55;53.31
69208;SHT31;70114;47.690;8.898;2023-07-13T13:21:44;26.33;53.75
69208;SHT31;70114;47.690;8.898;2023-07-13T13:24:16;26.00;52.85
69208;SHT31;70114;47.690;8.898;2023-07-13T13:26:43;26.34;53.38
69208;SHT31;70114;47.690;8.898;2023-07-13T13:29:17;26.57;52.55
69208;SHT31;70114;47.690;8.898;2023-07-13T13:31:43;26.64;52.27
69208;SHT31;70114;47.690;8.898;2023-07-13T13:34:13;26.68;54.18
69208;SHT31;70114;47.690;8.898;2023-07-13T13:36:40;26.80;52.34
69208;SHT31;70114;47.690;8.898;2023-07-13T13:39:30;27.05;50.24
69208;SHT31;70114;47.690;8.898;2023-07-13T13:41:56;27.30;49.42
69208;SHT31;70114;47.690;8.898;2023-07-13T13:44:22;27.33;48.82
69208;SHT31;70114;47.690;8.898;2023-07-13T13:46:50;27.16;45.04
69208;SHT31;70114;47.690;8.898;2023-07-13T13:49:19;27.85;44.55
69208;SHT31;70114;47.690;8.898;2023-07-13T13:51:46;28.16;46.40
69208;SHT31;70114;47.690;8.898;2023-07-13T13:54:13;28.02;47.69
69208;SHT31;70114;47.690;8.898;2023-07-13T13:56:43;28.02;47.45
69208;SHT31;70114;47.690;8.898;2023-07-13T13:59:10;27.91;46.64
69208;SHT31;70114;47.690;8.898;2023-07-13T14:01:36;27.90;45.36
69208;SHT31;70114;47.690;8.898;2023-07-13T14:04:03;28.19;40.87
69208;SHT31;70114;47.690;8.898;2023-07-13T14:06:28;28.55;40.34
69208;SHT31;70114;47.690;8.898;2023-07-13T14:08:54;28.62;41.97
69208;SHT31;70114;47.690;8.898;2023-07-13T14:11:21;28.60;40.99
69208;SHT31;70114;47.690;8.898;2023-07-13T14:13:58;28.79;42.41
69208;SHT31;70114;47.690;8.898;2023-07-13T14:16:28;28.87;42.81
69208;SHT31;70114;47.690;8.898;2023-07-13T14:18:55;28.86;42.69
69208;SHT31;70114;47.690;8.898;2023-07-13T14:21:24;29.15;42.57
69208;SHT31;70114;47.690;8.898;2023-07-13T14:23:50;29.38;41.60
69208;SHT31;70114;47.690;8.898;2023-07-13T14:26:25;29.58;39.83
69208;SHT31;70114;47.690;8.898;2023-07-13T14:28:56;29.24;39.74
69208;SHT31;70114;47.690;8.898;2023-07-13T14:31:24;29.49;41.11
69208;SHT31;70114;47.690;8.898;2023-07-13T14:33:49;29.66;40.37
69208;SHT31;70114;47.690;8.898;2023-07-13T14:36:42;29.99;40.27
69208;SHT31;70114;47.690;8.898;2023-07-13T14:39:15;30.20;39.12
69208;SHT31;70114;47.690;8.898;2023-07-13T14:41:42;30.58;38.85
69208;SHT31;70114;47.690;8.898;2023-07-13T14:46:37;31.06;37.95
69208;SHT31;70114;47.690;8.898;2023-07-13T14:49:27;30.90;35.59
69208;SHT31;70114;47.690;8.898;2023-07-13T14:51:51;31.09;33.36
69208;SHT31;70114;47.690;8.898;2023-07-13T14:54:16;30.92;33.48
69208;SHT31;70114;47.690;8.898;2023-07-13T14:56:42;30.93;34.12
69208;SHT31;70114;47.690;8.898;2023-07-13T14:59:07;31.09;34.00
69208;SHT31;70114;47.690;8.898;2023-07-13T15:01:34;30.68;34.69
69208;SHT31;70114;47.690;8.898;2023-07-13T15:04:00;30.82;33.64
69208;SHT31;70114;47.690;8.898;2023-07-13T15:06:26;31.16;34.33
69208;SHT31;70114;47.690;8.898;2023-07-13T15:08:52;31.15;31.65
69208;SHT31;70114;47.690;8.898;2023-07-13T15:11:17;30.71;34.15
69208;SHT31;70114;47.690;8.898;2023-07-13T15:13:43;31.51;34.18
69208;SHT31;70114;47.690;8.898;2023-07-13T15:16:23;31.56;33.40
69208;SHT31;70114;47.690;8.898;2023-07-13T15:18:49;31.40;32.13
69208;SHT31;70114;47.690;8.898;2023-07-13T15:21:20;31.73;31.88
69208;SHT31;70114;47.690;8.898;2023-07-13T15:23:46;31.09;32.76
69208;SHT31;70114;47.690;8.898;2023-07-13T15:26:16;31.31;32.03
69208;SHT31;70114;47.690;8.898;2023-07-13T15:28:43;31.04;30.91
69208;SHT31;70114;47.690;8.898;2023-07-13T15:31:21;31.31;31.27
69208;SHT31;70114;47.690;8.898;2023-07-13T15:33:47;30.90;31.94
69208;SHT31;70114;47.690;8.898;2023-07-13T15:36:15;31.10;30.58
69208;SHT31;70114;47.690;8.898;2023-07-13T15:38:42;31.37;31.03
69208;SHT31;70114;47.690;8.898;2023-07-13T15:41:17;31.57;31.27
69208;SHT31;70114;47.690;8.898;2023-07-13T15:43:43;31.95;29.49
69208;SHT31;70114;47.690;8.898;2023-07-13T15:46:09;31.25;29.30
69208;SHT31;70114;47.690;8.898;2023-07-13T15:48:34;30.75;29.76
69208;SHT31;70114;47.690;8.898;2023-07-13T15:51:01;30.89;29.87
69208;SHT31;70114;47.690;8.898;2023-07-13T15:53:32;30.78;28.99
69208;SHT31;70114;47.690;8.898;2023-07-13T15:55:59;30.95;29.64
69208;SHT31;70114;47.690;8.898;2023-07-13T15:58:25;30.99;30.55
69208;SHT31;70114;47.690;8.898;2023-07-13T16:00:51;31.04;30.01
69208;SHT31;70114;47.690;8.898;2023-07-13T16:03:19;30.86;29.41
69208;SHT31;70114;47.690;8.898;2023-07-13T16:05:45;30.72;29.44
69208;SHT31;70114;47.690;8.898;2023-07-13T16:08:31;30.45;29.26
69208;SHT31;70114;47.690;8.898;2023-07-13T16:11:02;30.81;29.68
69208;SHT31;70114;47.690;8.898;2023-07-13T16:13:27;30.85;29.17